Time,TemperatureF,DewpointF,PressureIn,WindDirection,WindDirectionDegrees,WindSpeedMPH,WindSpeedGustMPH,Humidity,HourlyPrecipIn,Conditions,Clouds,dailyrainin,SolarRadiationWatts/m^2,SoftwareType,DateUTC
2013-04-09 00:10:00,48.1,44.0,29.58,SSW,193,2.0,10.0,86,0.05,,,0.01,0,weatherlink.com 1.10,2013-04-09 07:10:00,
2013-04-09 00:25:00,47.9,44.0,29.59,WSW,252,9.0,14.0,86,0.07,,,0.03,0,weatherlink.com 1.10,2013-04-09 07:25:00,
2013-04-09 00:40:00,48.0,44.0,29.59,WSW,242,10.0,11.0,87,0.06,,,0.03,0,weatherlink.com 1.10,2013-04-09 07:40:00,
2013-04-09 00:55:00,48.2,45.0,29.61,WSW,244,2.0,10.0,87,0.04,,,0.03,0,weatherlink.com 1.10,2013-04-09 07:55:00,
2013-04-09 01:10:00,48.2,45.0,29.60,SSW,205,1.0,7.0,89,0.06,,,0.07,0,weatherlink.com 1.10,2013-04-09 08:10:00,
2013-04-09 01:25:00,48.2,45.0,29.60,NNW,344,0.0,4.0,88,0.04,,,0.07,0,weatherlink.com 1.10,2013-04-09 08:25:00,
2013-04-09 01:40:00,47.4,45.0,29.61,ESE,123,2.0,3.0,90,0.04,,,0.07,0,weatherlink.com 1.10,2013-04-09 08:40:00,
2013-04-09 01:55:00,47.4,44.0,29.60,ESE,123,2.0,3.0,89,0.04,,,0.07,0,weatherlink.com 1.10,2013-04-09 08:55:00,
2013-04-09 02:10:00,47.7,45.0,29.61,ESE,123,0.0,0.0,90,0.00,,,0.07,0,weatherlink.com 1.10,2013-04-09 09:10:00,
2013-04-09 02:25:00,47.6,45.0,29.62,East,79,0.0,2.0,90,0.00,,,0.07,0,weatherlink.com 1.10,2013-04-09 09:25:00,
2013-04-09 02:40:00,47.9,45.0,29.62,East,79,0.0,2.0,90,0.00,,,0.07,0,weatherlink.com 1.10,2013-04-09 09:40:00,
2013-04-09 02:55:00,48.2,46.0,29.62,East,94,2.0,2.0,90,0.00,,,0.07,0,weatherlink.com 1.10,2013-04-09 09:55:00,
2013-04-09 03:10:00,48.3,45.0,29.62,East,81,0.0,2.0,87,0.00,,,0.07,0,weatherlink.com 1.10,2013-04-09 10:10:00,
2013-04-09 03:25:00,49.0,46.0,29.62,East,81,0.0,1.0,88,0.00,,,0.07,0,weatherlink.com 1.10,2013-04-09 10:25:00,
2013-04-09 03:40:00,49.2,46.0,29.63,NNE,19,0.0,2.0,87,0.00,,,0.07,0,weatherlink.com 1.10,2013-04-09 10:40:00,
2013-04-09 03:55:00,48.7,46.0,29.63,NNW,346,1.0,5.0,89,0.00,,,0.07,0,weatherlink.com 1.10,2013-04-09 10:55:00,
2013-04-09 04:10:00,48.9,46.0,29.64,NW,325,0.0,4.0,90,0.00,,,0.07,0,weatherlink.com 1.10,2013-04-09 11:10:00,
2013-04-09 04:26:00,49.2,47.0,29.64,West,268,2.0,3.0,91,0.00,,,0.07,0,weatherlink.com 1.10,2013-04-09 11:26:00,
2013-04-09 04:41:00,49.3,47.0,29.65,WSW,241,0.0,3.0,90,0.00,,,0.07,0,weatherlink.com 1.10,2013-04-09 11:41:00,
2013-04-09 04:56:00,48.8,46.0,29.65,South,172,1.0,3.0,91,0.00,,,0.07,0,weatherlink.com 1.10,2013-04-09 11:56:00,
2013-04-09 05:11:00,49.7,47.0,29.66,SSW,204,0.0,3.0,90,0.00,,,0.07,0,weatherlink.com 1.10,2013-04-09 12:11:00,
2013-04-09 05:26:00,49.8,47.0,29.67,SSW,203,0.0,2.0,89,0.00,,,0.07,0,weatherlink.com 1.10,2013-04-09 12:26:00,
2013-04-09 05:56:00,50.0,45.0,29.67,WSW,239,4.0,6.0,82,0.00,,,0.07,0,weatherlink.com 1.10,2013-04-09 12:56:00,
2013-04-09 06:26:00,50.5,44.0,29.68,WSW,248,2.0,6.0,78,0.00,,,0.07,23,weatherlink.com 1.10,2013-04-09 13:26:00,
2013-04-09 06:41:00,50.7,43.0,29.69,West,264,4.0,6.0,75,0.00,,,0.07,32,weatherlink.com 1.10,2013-04-09 13:41:00,
2013-04-09 06:56:00,51.0,42.0,29.69,SSW,198,5.0,9.0,71,0.00,,,0.07,56,weatherlink.com 1.10,2013-04-09 13:56:00,
2013-04-09 07:11:00,51.3,41.0,29.70,WSW,257,4.0,9.0,67,0.00,,,0.07,65,weatherlink.com 1.10,2013-04-09 14:11:00,
2013-04-09 07:56:00,52.6,39.0,29.72,SW,222,5.0,10.0,60,0.00,,,0.07,156,weatherlink.com 1.10,2013-04-09 14:56:00,
2013-04-09 08:11:00,53.0,39.0,29.73,SSW,209,6.0,8.0,60,0.00,,,0.07,186,weatherlink.com 1.10,2013-04-09 15:11:00,
2013-04-09 08:26:00,53.9,39.0,29.74,West,261,6.0,9.0,58,0.00,,,0.07,287,weatherlink.com 1.10,2013-04-09 15:26:00,
2013-04-09 08:41:00,54.3,38.0,29.74,WSW,258,5.0,9.0,55,0.00,,,0.07,183,weatherlink.com 1.10,2013-04-09 15:41:00,
2013-04-09 08:56:00,54.8,38.0,29.74,West,263,6.0,12.0,54,0.00,,,0.07,253,weatherlink.com 1.10,2013-04-09 15:56:00,
2013-04-09 09:11:00,55.3,38.0,29.75,WSW,246,7.0,10.0,52,0.00,,,0.07,188,weatherlink.com 1.10,2013-04-09 16:11:00,
2013-04-09 09:26:00,55.4,36.0,29.75,West,265,7.0,15.0,49,0.00,,,0.07,218,weatherlink.com 1.10,2013-04-09 16:26:00,
2013-04-09 09:41:00,58.9,36.0,29.75,WSW,238,11.0,15.0,43,0.00,,,0.07,686,weatherlink.com 1.10,2013-04-09 16:41:00,
2013-04-09 09:57:00,59.3,35.0,29.76,West,260,10.0,16.0,41,0.00,,,0.07,408,weatherlink.com 1.10,2013-04-09 16:57:00,
2013-04-09 10:12:00,60.6,36.0,29.76,WSW,257,11.0,15.0,40,0.00,,,0.07,570,weatherlink.com 1.10,2013-04-09 17:12:00,
2013-04-09 10:27:00,59.9,37.0,29.76,SW,219,9.0,18.0,42,0.00,,,0.07,554,weatherlink.com 1.10,2013-04-09 17:27:00,
2013-04-09 10:42:00,61.4,37.0,29.76,SW,236,6.0,14.0,41,0.00,,,0.07,863,weatherlink.com 1.10,2013-04-09 17:42:00,
2013-04-09 10:57:00,61.4,35.0,29.76,WNW,299,13.0,19.0,38,0.00,,,0.07,415,weatherlink.com 1.10,2013-04-09 17:57:00,
2013-04-09 11:12:00,62.3,34.0,29.76,SW,229,19.0,19.0,35,0.00,,,0.07,983,weatherlink.com 1.10,2013-04-09 18:12:00,
2013-04-09 11:27:00,63.6,34.0,29.76,WSW,240,10.0,18.0,33,0.00,,,0.07,1009,weatherlink.com 1.10,2013-04-09 18:27:00,
2013-04-09 11:42:00,63.5,32.0,29.76,SSW,201,12.0,19.0,31,0.00,,,0.07,327,weatherlink.com 1.10,2013-04-09 18:42:00,
2013-04-09 11:57:00,63.2,30.0,29.76,WSW,242,11.0,23.0,29,0.00,,,0.07,1104,weatherlink.com 1.10,2013-04-09 18:57:00,
2013-04-09 12:12:00,63.8,31.0,29.76,SW,222,10.0,22.0,29,0.00,,,0.07,336,weatherlink.com 1.10,2013-04-09 19:12:00,
2013-04-09 12:27:00,63.2,30.0,29.77,West,271,14.0,18.0,29,0.00,,,0.07,390,weatherlink.com 1.10,2013-04-09 19:27:00,
2013-04-09 12:42:00,62.7,29.0,29.76,West,265,11.0,18.0,28,0.00,,,0.07,313,weatherlink.com 1.10,2013-04-09 19:42:00,
2013-04-09 12:57:00,62.8,29.0,29.77,WSW,249,10.0,21.0,28,0.00,,,0.07,383,weatherlink.com 1.10,2013-04-09 19:57:00,
2013-04-09 13:12:00,62.9,28.0,29.77,SW,235,13.0,17.0,27,0.00,,,0.07,316,weatherlink.com 1.10,2013-04-09 20:12:00,
2013-04-09 13:27:00,62.6,28.0,29.77,WNW,298,7.0,18.0,27,0.00,,,0.07,397,weatherlink.com 1.10,2013-04-09 20:27:00,
2013-04-09 13:42:00,64.3,29.0,29.77,West,269,15.0,21.0,26,0.00,,,0.07,545,weatherlink.com 1.10,2013-04-09 20:42:00,
2013-04-09 13:57:00,64.9,29.0,29.77,WNW,290,9.0,18.0,26,0.00,,,0.07,381,weatherlink.com 1.10,2013-04-09 20:57:00,
2013-04-09 14:12:00,63.9,29.0,29.77,WNW,283,21.0,21.0,27,0.00,,,0.07,383,weatherlink.com 1.10,2013-04-09 21:12:00,
2013-04-09 14:27:00,63.8,29.0,29.77,West,259,13.0,20.0,27,0.00,,,0.07,357,weatherlink.com 1.10,2013-04-09 21:27:00,
2013-04-09 14:42:00,64.1,29.0,29.77,West,269,15.0,19.0,27,0.00,,,0.07,722,weatherlink.com 1.10,2013-04-09 21:42:00,
2013-04-09 14:57:00,65.1,28.0,29.77,West,268,11.0,22.0,25,0.00,,,0.07,373,weatherlink.com 1.10,2013-04-09 21:57:00,
2013-04-09 15:12:00,64.9,28.0,29.77,WSW,247,20.0,22.0,25,0.00,,,0.07,385,weatherlink.com 1.10,2013-04-09 22:12:00,
2013-04-09 15:27:00,64.5,28.0,29.77,WSW,258,9.0,16.0,25,0.00,,,0.07,343,weatherlink.com 1.10,2013-04-09 22:27:00,
2013-04-09 15:42:00,63.8,27.0,29.78,WSW,250,12.0,21.0,25,0.00,,,0.07,258,weatherlink.com 1.10,2013-04-09 22:42:00,
2013-04-09 15:57:00,63.8,27.0,29.78,West,271,7.0,18.0,25,0.00,,,0.07,227,weatherlink.com 1.10,2013-04-09 22:57:00,
2013-04-09 16:12:00,63.8,26.0,29.78,WNW,296,10.0,20.0,24,0.00,,,0.07,234,weatherlink.com 1.10,2013-04-09 23:12:00,
2013-04-09 16:27:00,63.7,26.0,29.78,West,260,11.0,22.0,24,0.00,,,0.07,176,weatherlink.com 1.10,2013-04-09 23:27:00,
2013-04-09 16:42:00,63.5,26.0,29.79,West,265,7.0,17.0,24,0.00,,,0.07,151,weatherlink.com 1.10,2013-04-09 23:42:00,
2013-04-09 16:57:00,63.5,26.0,29.79,WSW,257,8.0,15.0,24,0.00,,,0.07,118,weatherlink.com 1.10,2013-04-09 23:57:00,
2013-04-09 17:12:00,63.0,27.0,29.80,West,261,6.0,14.0,25,0.00,,,0.07,163,weatherlink.com 1.10,2013-04-10 00:12:00,
2013-04-09 17:27:00,63.6,26.0,29.80,WNW,282,7.0,15.0,24,0.00,,,0.07,288,weatherlink.com 1.10,2013-04-10 00:27:00,
2013-04-09 17:42:00,63.8,25.0,29.80,West,281,13.0,20.0,23,0.00,,,0.07,114,weatherlink.com 1.10,2013-04-10 00:42:00,
2013-04-09 17:57:00,62.8,24.0,29.80,West,267,7.0,16.0,23,0.00,,,0.07,70,weatherlink.com 1.10,2013-04-10 00:57:00,
2013-04-09 18:12:00,63.1,25.0,29.80,WNW,300,7.0,12.0,23,0.00,,,0.07,83,weatherlink.com 1.10,2013-04-10 01:12:00,
2013-04-09 18:27:00,62.8,24.0,29.81,West,261,5.0,19.0,23,0.00,,,0.07,42,weatherlink.com 1.10,2013-04-10 01:27:00,
2013-04-09 18:42:00,62.1,25.0,29.81,West,261,3.0,11.0,24,0.00,,,0.07,12,weatherlink.com 1.10,2013-04-10 01:42:00,
2013-04-09 18:57:00,61.6,24.0,29.82,WSW,250,8.0,13.0,24,0.00,,,0.07,0,weatherlink.com 1.10,2013-04-10 01:57:00,
2013-04-09 19:12:00,61.2,24.0,29.82,WSW,244,5.0,14.0,24,0.00,,,0.07,0,weatherlink.com 1.10,2013-04-10 02:12:00,
2013-04-09 19:27:00,61.2,24.0,29.83,West,265,6.0,11.0,24,0.00,,,0.07,0,weatherlink.com 1.10,2013-04-10 02:27:00,
2013-04-09 19:42:00,61.3,24.0,29.83,West,271,8.0,13.0,24,0.00,,,0.07,0,weatherlink.com 1.10,2013-04-10 02:42:00,
2013-04-09 19:57:00,60.7,25.0,29.84,West,277,4.0,9.0,25,0.00,,,0.07,0,weatherlink.com 1.10,2013-04-10 02:57:00,
2013-04-09 20:12:00,59.6,25.0,29.85,West,275,2.0,6.0,27,0.00,,,0.07,0,weatherlink.com 1.10,2013-04-10 03:12:00,
2013-04-09 20:27:00,58.1,26.0,29.86,WNW,282,2.0,4.0,29,0.00,,,0.07,0,weatherlink.com 1.10,2013-04-10 03:27:00,
2013-04-09 20:42:00,56.8,28.0,29.86,WNW,282,0.0,2.0,33,0.00,,,0.07,0,weatherlink.com 1.10,2013-04-10 03:42:00,
2013-04-09 20:57:00,55.6,31.0,29.87,WNW,282,0.0,1.0,39,0.00,,,0.07,0,weatherlink.com 1.10,2013-04-10 03:57:00,
2013-04-09 21:12:00,54.4,32.0,29.88,WNW,282,0.0,0.0,43,0.00,,,0.07,0,weatherlink.com 1.10,2013-04-10 04:12:00,
2013-04-09 21:28:00,53.7,33.0,29.88,WNW,282,0.0,0.0,46,0.00,,,0.07,0,weatherlink.com 1.10,2013-04-10 04:28:00,
2013-04-09 21:43:00,52.1,34.0,29.89,WNW,282,0.0,0.0,50,0.00,,,0.07,0,weatherlink.com 1.10,2013-04-10 04:43:00,
2013-04-09 21:58:00,50.7,34.0,29.89,WNW,282,1.0,1.0,53,0.00,,,0.07,0,weatherlink.com 1.10,2013-04-10 04:58:00,
2013-04-09 22:13:00,51.6,32.0,29.89,NE,46,2.0,4.0,47,0.00,,,0.07,0,weatherlink.com 1.10,2013-04-10 05:13:00,
2013-04-09 22:28:00,52.5,32.0,29.90,NE,55,1.0,5.0,46,0.00,,,0.07,0,weatherlink.com 1.10,2013-04-10 05:28:00,
2013-04-09 22:43:00,51.7,32.0,29.90,NE,55,2.0,2.0,48,0.00,,,0.07,0,weatherlink.com 1.10,2013-04-10 05:43:00,
2013-04-09 22:58:00,50.9,33.0,29.90,NE,55,1.0,3.0,51,0.00,,,0.07,0,weatherlink.com 1.10,2013-04-10 05:58:00,
2013-04-09 23:13:00,50.4,33.0,29.91,SE,140,0.0,2.0,52,0.00,,,0.07,0,weatherlink.com 1.10,2013-04-10 06:13:00,
2013-04-09 23:28:00,50.7,33.0,29.91,South,170,0.0,1.0,51,0.00,,,0.07,0,weatherlink.com 1.10,2013-04-10 06:28:00,
2013-04-09 23:43:00,53.5,30.0,29.92,West,268,3.0,9.0,40,0.00,,,0.07,0,weatherlink.com 1.10,2013-04-10 06:43:00,
2013-04-09 23:58:00,54.4,30.0,29.92,WSW,237,3.0,6.0,40,0.00,,,0.07,0,weatherlink.com 1.10,2013-04-10 06:58:00,